Time;durP1;ratioP1;P1;durP2;ratioP2;P2;SDS_P1;SDS_P2;PMS_P1;PMS_P2;Temp;Humidity;BMP_temperature;BMP_pressure;BME280_temperature;BME280_humidity;BME280_pressure;Samples;Min_cycle;Max_cycle;Signal;HPM_P1;HPM_P2
2023/09/04 00:02:20;;;;;;;4.30;3.60;;;;;;;;;;5105453;28;20227;-71
2023/09/04 00:04:47;;;;;;;3.67;3.37;;;;;;;;;;5105227;28;20206;-71
2023/09/04 00:07:14;;;;;;;4.43;3.40;;;;;;;;;;5105670;28;20575;-71
2023/09/04 00:09:40;;;;;;;4.20;3.20;;;;;;;;;;5105080;28;20227;-71
2023/09/04 00:12:09;;;;;;;3.60;3.30;;;;;;;;;;5104895;28;20295;-71
2023/09/04 00:14:36;;;;;;;3.60;3.30;;;;;;;;;;5105088;28;20207;-71
2023/09/04 00:17:02;;;;;;;5.33;3.67;;;;;;;;;;5099154;28;20195;-71
2023/09/04 00:19:29;;;;;;;4.37;3.40;;;;;;;;;;5110847;28;20253;-72
2023/09/04 00:21:56;;;;;;;4.50;3.53;;;;;;;;;;5099179;28;20271;-71
2023/09/04 00:24:23;;;;;;;4.10;3.70;;;;;;;;;;5110835;28;20199;-72
2023/09/04 00:26:50;;;;;;;4.63;3.23;;;;;;;;;;5091627;28;20566;-71
2023/09/04 00:29:19;;;;;;;3.30;3.00;;;;;;;;;;5092907;28;20216;-72
2023/09/04 00:31:45;;;;;;;3.77;3.37;;;;;;;;;;5103182;28;20694;-71
2023/09/04 00:34:12;;;;;;;3.73;3.30;;;;;;;;;;5104769;28;20678;-72
2023/09/04 00:36:39;;;;;;;3.60;3.30;;;;;;;;;;5099878;28;20199;-71
2023/09/04 00:39:06;;;;;;;3.20;2.90;;;;;;;;;;5095434;28;20614;-72
2023/09/04 00:41:33;;;;;;;3.43;3.23;;;;;;;;;;5091651;28;20258;-71
2023/09/04 00:43:59;;;;;;;5.57;3.37;;;;;;;;;;5107129;28;20207;-73
2023/09/04 00:46:28;;;;;;;5.83;3.40;;;;;;;;;;5101691;28;20212;-72
2023/09/04 00:48:55;;;;;;;3.37;3.07;;;;;;;;;;5091101;28;20197;-71
2023/09/04 00:51:22;;;;;;;3.77;3.47;;;;;;;;;;5090529;28;20246;-72
2023/09/04 00:53:49;;;;;;;6.77;3.40;;;;;;;;;;5094721;28;20203;-72
2023/09/04 00:56:16;;;;;;;3.70;3.23;;;;;;;;;;5111254;28;20211;-72
2023/09/04 00:58:43;;;;;;;4.87;3.07;;;;;;;;;;5107431;28;20646;-71
2023/09/04 01:01:10;;;;;;;4.40;3.23;;;;;;;;;;5090631;28;20625;-71
2023/09/04 01:03:38;;;;;;;4.30;2.80;;;;;;;;;;5104583;28;20196;-71
2023/09/04 01:06:05;;;;;;;3.20;2.90;;;;;;;;;;5090997;28;20649;-71
2023/09/04 01:08:33;;;;;;;3.00;2.77;;;;;;;;;;5104397;28;20201;-71
2023/09/04 01:11:05;;;;;;;3.50;3.20;;;;;;;;;;5102418;28;20230;-71
2023/09/04 01:13:38;;;;;;;4.00;3.60;;;;;;;;;;5091944;28;20197;-71
2023/09/04 01:16:06;;;;;;;4.53;3.17;;;;;;;;;;5090767;28;20214;-71
2023/09/04 01:18:34;;;;;;;3.17;2.90;;;;;;;;;;5090854;28;20282;-71
2023/09/04 01:21:03;;;;;;;2.97;2.73;;;;;;;;;;5090219;28;20244;-71
2023/09/04 01:23:29;;;;;;;3.30;3.00;;;;;;;;;;5098014;28;20589;-72
2023/09/04 01:26:04;;;;;;;3.83;3.00;;;;;;;;;;5109681;28;20203;-71
2023/09/04 01:28:39;;;;;;;3.60;3.30;;;;;;;;;;5091053;28;20209;-71
2023/09/04 01:31:12;;;;;;;4.13;3.10;;;;;;;;;;5104556;28;20211;-71
2023/09/04 01:33:41;;;;;;;4.37;3.50;;;;;;;;;;5101360;28;20239;-71
2023/09/04 01:36:13;;;;;;;3.87;2.77;;;;;;;;;;5110714;28;20736;-71
2023/09/04 01:38:40;;;;;;;3.30;3.00;;;;;;;;;;5099193;28;20257;-71
2023/09/04 01:41:07;;;;;;;4.17;3.20;;;;;;;;;;5104196;28;20581;-71
2023/09/04 01:43:34;;;;;;;3.50;3.20;;;;;;;;;;5102910;28;20238;-71
2023/09/04 01:46:00;;;;;;;2.83;2.57;;;;;;;;;;5091437;28;20214;-71
2023/09/04 01:48:27;;;;;;;2.73;2.53;;;;;;;;;;5093579;28;20557;-71
2023/09/04 01:50:54;;;;;;;4.17;2.80;;;;;;;;;;5108218;28;20198;-72
2023/09/04 01:53:23;;;;;;;3.57;3.27;;;;;;;;;;5094103;28;20323;-71
2023/09/04 01:55:49;;;;;;;2.47;2.27;;;;;;;;;;5100227;28;20697;-71
2023/09/04 01:58:16;;;;;;;2.97;2.63;;;;;;;;;;5101380;28;20212;-71
2023/09/04 02:00:43;;;;;;;3.83;2.60;;;;;;;;;;5094259;28;20257;-71
2023/09/04 02:03:10;;;;;;;2.73;2.53;;;;;;;;;;5107478;28;20224;-71
2023/09/04 02:05:38;;;;;;;2.67;2.27;;;;;;;;;;5107557;28;20292;-71
2023/09/04 02:08:07;;;;;;;2.80;2.60;;;;;;;;;;5093993;28;20702;-71
2023/09/04 02:10:35;;;;;;;2.50;2.20;;;;;;;;;;5095100;28;20263;-71
2023/09/04 02:13:02;;;;;;;2.23;2.03;;;;;;;;;;5108361;28;20203;-71
2023/09/04 02:15:30;;;;;;;4.27;2.60;;;;;;;;;;5106180;28;20197;-71
2023/09/04 02:17:56;;;;;;;1.97;1.87;;;;;;;;;;5095495;28;20204;-71
2023/09/04 02:20:23;;;;;;;2.43;2.23;;;;;;;;;;5105707;28;20196;-71
2023/09/04 02:22:51;;;;;;;2.33;2.13;;;;;;;;;;5108991;28;20230;-71
2023/09/04 02:25:17;;;;;;;3.83;2.17;;;;;;;;;;5105021;28;20253;-71
2023/09/04 02:27:46;;;;;;;1.80;1.70;;;;;;;;;;5109429;28;20206;-71
2023/09/04 02:30:15;;;;;;;1.90;1.80;;;;;;;;;;5114098;28;20200;-71
2023/09/04 02:32:43;;;;;;;2.13;1.90;;;;;;;;;;5099489;28;20700;-71
2023/09/04 02:35:10;;;;;;;3.20;2.27;;;;;;;;;;5113911;28;20669;-71
2023/09/04 02:37:36;;;;;;;2.10;1.83;;;;;;;;;;5096924;28;20219;-71
2023/09/04 02:40:06;;;;;;;2.20;2.10;;;;;;;;;;5104020;28;20195;-71
2023/09/04 02:42:33;;;;;;;2.40;2.20;;;;;;;;;;5096191;28;20611;-71
2023/09/04 02:45:01;;;;;;;2.03;1.93;;;;;;;;;;5093420;28;20208;-71
2023/09/04 02:47:27;;;;;;;2.07;1.93;;;;;;;;;;5109913;28;20199;-71
2023/09/04 02:49:55;;;;;;;2.10;2.00;;;;;;;;;;5111705;28;20225;-71
2023/09/04 02:52:22;;;;;;;2.23;1.70;;;;;;;;;;5112969;28;20199;-71
2023/09/04 02:54:49;;;;;;;2.33;2.07;;;;;;;;;;5113834;28;20242;-71
2023/09/04 02:57:15;;;;;;;1.90;1.80;;;;;;;;;;5112976;28;20666;-71
2023/09/04 02:59:42;;;;;;;2.03;1.93;;;;;;;;;;5113251;28;20203;-70
2023/09/04 03:02:10;;;;;;;1.87;1.77;;;;;;;;;;5113203;28;20233;-70
2023/09/04 03:04:37;;;;;;;1.80;1.70;;;;;;;;;;5113191;28;20257;-70
2023/09/04 03:07:04;;;;;;;2.37;1.67;;;;;;;;;;5112917;28;20206;-71
2023/09/04 03:09:31;;;;;;;1.73;1.63;;;;;;;;;;5113247;28;20199;-70
2023/09/04 03:11:58;;;;;;;1.80;1.70;;;;;;;;;;5113198;28;20202;-70
2023/09/04 03:14:25;;;;;;;1.80;1.70;;;;;;;;;;5112961;28;20287;-71
2023/09/04 03:16:52;;;;;;;3.30;1.87;;;;;;;;;;5113040;28;20199;-70
2023/09/04 03:19:20;;;;;;;1.70;1.60;;;;;;;;;;5110422;28;20614;-71
2023/09/04 03:21:47;;;;;;;1.87;1.70;;;;;;;;;;5092215;28;20701;-70
2023/09/04 03:24:15;;;;;;;1.80;1.70;;;;;;;;;;5093964;28;20710;-72
2023/09/04 03:26:41;;;;;;;1.97;1.53;;;;;;;;;;5103279;28;20196;-71
2023/09/04 03:29:08;;;;;;;2.40;1.57;;;;;;;;;;5092264;28;20584;-72
2023/09/04 03:31:35;;;;;;;3.93;1.53;;;;;;;;;;5099622;28;20253;-72
2023/09/04 03:34:02;;;;;;;2.93;1.70;;;;;;;;;;5112151;28;20204;-72
2023/09/04 03:36:30;;;;;;;1.70;1.60;;;;;;;;;;5098656;28;20207;-72
2023/09/04 03:38:57;;;;;;;1.77;1.67;;;;;;;;;;5098617;28;20216;-72
2023/09/04 03:41:24;;;;;;;1.50;1.40;;;;;;;;;;5099639;28;20200;-71
2023/09/04 03:43:51;;;;;;;3.57;1.47;;;;;;;;;;5099076;28;20322;-72
2023/09/04 03:46:18;;;;;;;1.70;1.60;;;;;;;;;;5100810;28;20204;-71
2023/09/04 03:48:45;;;;;;;1.50;1.40;;;;;;;;;;5092625;28;20196;-71
2023/09/04 03:51:11;;;;;;;1.43;1.33;;;;;;;;;;5104307;28;20215;-71
2023/09/04 03:53:39;;;;;;;1.60;1.50;;;;;;;;;;5092120;28;20205;-71
2023/09/04 03:56:07;;;;;;;1.97;1.80;;;;;;;;;;5100148;28;20382;-71
2023/09/04 03:58:33;;;;;;;2.87;1.97;;;;;;;;;;5098489;28;20204;-71
2023/09/04 04:01:01;;;;;;;1.80;1.70;;;;;;;;;;5103153;28;20207;-71
2023/09/04 04:03:27;;;;;;;1.70;1.47;;;;;;;;;;5107250;28;20227;-71
2023/09/04 04:05:54;;;;;;;1.47;1.37;;;;;;;;;;5102839;28;20682;-72
2023/09/04 04:08:21;;;;;;;1.50;1.40;;;;;;;;;;5092167;28;20269;-71
2023/09/04 04:10:49;;;;;;;1.60;1.50;;;;;;;;;;5091332;28;20226;-71
2023/09/04 04:13:16;;;;;;;1.90;1.23;;;;;;;;;;5092029;28;20203;-71
2023/09/04 04:15:43;;;;;;;1.53;1.43;;;;;;;;;;5091432;28;20208;-75
2023/09/04 04:18:10;;;;;;;1.60;1.50;;;;;;;;;;5093710;28;20227;-74
2023/09/04 04:20:37;;;;;;;1.60;1.50;;;;;;;;;;5102237;28;20641;-75
2023/09/04 04:23:05;;;;;;;1.63;1.53;;;;;;;;;;5105063;28;20656;-74
2023/09/04 04:25:32;;;;;;;1.37;1.27;;;;;;;;;;5101580;28;20204;-74
2023/09/04 04:28:00;;;;;;;1.57;1.47;;;;;;;;;;5097573;28;20703;-74
2023/09/04 04:30:27;;;;;;;4.87;2.00;;;;;;;;;;5100757;28;20685;-74
2023/09/04 04:32:53;;;;;;;1.47;1.37;;;;;;;;;;5103671;28;20199;-75
2023/09/04 04:35:20;;;;;;;1.60;1.50;;;;;;;;;;5090162;28;20215;-74
2023/09/04 04:37:47;;;;;;;2.63;1.40;;;;;;;;;;5096845;28;20665;-74
2023/09/04 04:40:20;;;;;;;2.00;1.60;;;;;;;;;;5098317;28;20211;-74
2023/09/04 04:42:47;;;;;;;1.87;1.50;;;;;;;;;;5090710;28;20255;-74
2023/09/04 04:45:17;;;;;;;4.13;1.50;;;;;;;;;;5103919;28;20196;-74
2023/09/04 04:47:44;;;;;;;1.70;1.60;;;;;;;;;;5090921;28;20211;-74
2023/09/04 04:50:11;;;;;;;1.60;1.33;;;;;;;;;;5089769;28;20208;-74
2023/09/04 04:52:38;;;;;;;1.40;1.30;;;;;;;;;;5090690;28;20204;-74
2023/09/04 04:55:05;;;;;;;1.40;1.30;;;;;;;;;;5091154;28;20200;-74
2023/09/04 04:57:33;;;;;;;1.47;1.37;;;;;;;;;;5090795;28;20196;-74
2023/09/04 05:00:00;;;;;;;1.50;1.40;;;;;;;;;;5090910;28;20678;-74
2023/09/04 05:02:28;;;;;;;1.60;1.40;;;;;;;;;;5090933;28;20212;-75
2023/09/04 05:04:55;;;;;;;1.83;1.73;;;;;;;;;;5107958;28;20206;-74
2023/09/04 05:07:22;;;;;;;1.60;1.50;;;;;;;;;;5100531;28;20215;-74
2023/09/04 05:09:53;;;;;;;1.73;1.63;;;;;;;;;;5090886;28;20697;-74
2023/09/04 05:12:19;;;;;;;1.60;1.50;;;;;;;;;;5101812;28;20669;-74
2023/09/04 05:14:46;;;;;;;1.87;1.67;;;;;;;;;;5111037;28;20195;-74
2023/09/04 05:17:15;;;;;;;1.70;1.50;;;;;;;;;;5099937;28;20226;-74
2023/09/04 05:19:44;;;;;;;1.63;1.53;;;;;;;;;;5095936;28;20191;-74
2023/09/04 05:22:10;;;;;;;1.80;1.70;;;;;;;;;;5099370;28;20203;-74
2023/09/04 05:24:37;;;;;;;2.00;1.27;;;;;;;;;;5100254;28;20220;-74
2023/09/04 05:27:04;;;;;;;1.50;1.40;;;;;;;;;;5102890;28;20192;-74
2023/09/04 05:29:31;;;;;;;1.70;1.60;;;;;;;;;;5098550;28;20669;-75
2023/09/04 05:31:58;;;;;;;1.70;1.60;;;;;;;;;;5115004;28;20260;-74
2023/09/04 05:34:25;;;;;;;1.50;1.40;;;;;;;;;;5115303;28;20196;-74
2023/09/04 05:36:54;;;;;;;1.50;1.40;;;;;;;;;;5103716;28;20200;-74
2023/09/04 05:39:21;;;;;;;3.40;1.57;;;;;;;;;;5099011;28;20191;-74
2023/09/04 05:41:47;;;;;;;1.83;1.73;;;;;;;;;;5103530;28;20208;-74
2023/09/04 05:44:14;;;;;;;1.70;1.60;;;;;;;;;;5107917;28;20226;-74
2023/09/04 05:46:41;;;;;;;6.17;1.60;;;;;;;;;;5105997;28;20195;-74
2023/09/04 05:49:08;;;;;;;2.47;1.70;;;;;;;;;;5109960;28;20200;-74
2023/09/04 05:51:34;;;;;;;2.13;1.60;;;;;;;;;;5106571;28;20207;-74
2023/09/04 05:54:03;;;;;;;1.70;1.60;;;;;;;;;;5114581;28;20623;-74
2023/09/04 05:56:29;;;;;;;2.17;2.00;;;;;;;;;;5102021;28;20204;-74
2023/09/04 05:58:56;;;;;;;2.00;1.80;;;;;;;;;;5107786;28;20250;-75
2023/09/04 06:01:24;;;;;;;2.03;1.93;;;;;;;;;;5107459;28;20234;-74
2023/09/04 06:03:50;;;;;;;1.93;1.83;;;;;;;;;;5094508;28;20215;-74
2023/09/04 06:06:17;;;;;;;2.20;2.10;;;;;;;;;;5094004;28;20281;-74
2023/09/04 06:08:44;;;;;;;1.83;1.73;;;;;;;;;;5100935;28;20199;-74
2023/09/04 06:11:15;;;;;;;1.70;1.60;;;;;;;;;;5100753;28;20720;-74
2023/09/04 06:13:42;;;;;;;1.87;1.77;;;;;;;;;;5101889;28;20200;-74
2023/09/04 06:16:09;;;;;;;2.17;2.07;;;;;;;;;;5098892;28;20241;-75
2023/09/04 06:18:36;;;;;;;1.63;1.53;;;;;;;;;;5094095;28;20204;-75
2023/09/04 06:21:03;;;;;;;2.17;1.80;;;;;;;;;;5094885;28;20196;-75
2023/09/04 06:23:32;;;;;;;2.33;1.93;;;;;;;;;;5106218;28;20247;-75
2023/09/04 06:26:02;;;;;;;2.00;1.90;;;;;;;;;;5093131;28;20674;-75
2023/09/04 06:28:30;;;;;;;2.00;1.90;;;;;;;;;;5101850;28;20559;-76
2023/09/04 06:30:57;;;;;;;2.20;2.07;;;;;;;;;;5112314;28;20204;-75
2023/09/04 06:33:25;;;;;;;1.90;1.80;;;;;;;;;;5101493;28;20258;-75
2023/09/04 06:35:51;;;;;;;2.17;2.07;;;;;;;;;;5099985;28;20215;-75
2023/09/04 06:38:18;;;;;;;2.40;2.20;;;;;;;;;;5104879;28;20208;-75
2023/09/04 06:40:45;;;;;;;2.40;2.20;;;;;;;;;;5093383;28;20212;-75
2023/09/04 06:43:14;;;;;;;2.20;2.10;;;;;;;;;;5093437;28;20644;-75
2023/09/04 06:45:42;;;;;;;2.50;2.30;;;;;;;;;;5109487;28;20210;-75
2023/09/04 06:48:09;;;;;;;2.30;2.20;;;;;;;;;;5113450;28;20195;-75
2023/09/04 06:50:36;;;;;;;2.47;2.27;;;;;;;;;;5097263;28;21166;-76
2023/09/04 06:53:03;;;;;;;2.97;2.37;;;;;;;;;;5092878;28;20708;-76
2023/09/04 06:55:30;;;;;;;3.37;3.07;;;;;;;;;;5106848;28;20200;-77
2023/09/04 06:57:57;;;;;;;2.40;2.20;;;;;;;;;;5103140;28;20203;-78
2023/09/04 07:00:26;;;;;;;3.87;2.67;;;;;;;;;;5099978;28;20229;-78
2023/09/04 07:02:54;;;;;;;2.93;2.50;;;;;;;;;;5102647;28;20746;-79
2023/09/04 07:05:21;;;;;;;2.63;2.30;;;;;;;;;;5097096;28;20253;-79
2023/09/04 07:07:48;;;;;;;3.77;2.40;;;;;;;;;;5101916;28;20694;-79
2023/09/04 07:10:15;;;;;;;2.30;2.10;;;;;;;;;;5110838;28;20280;-80
2023/09/04 07:12:42;;;;;;;2.27;2.07;;;;;;;;;;5101663;28;20207;-79
2023/09/04 07:15:09;;;;;;;2.20;2.00;;;;;;;;;;5105873;28;20188;-78
2023/09/04 07:17:36;;;;;;;2.23;2.13;;;;;;;;;;5104645;28;20252;-78
2023/09/04 07:20:05;;;;;;;2.40;2.23;;;;;;;;;;5107954;28;20196;-79
2023/09/04 07:22:32;;;;;;;3.00;2.23;;;;;;;;;;5105190;28;20207;-78
2023/09/04 07:24:59;;;;;;;2.10;2.00;;;;;;;;;;5098652;28;20227;-78
2023/09/04 07:27:26;;;;;;;2.10;1.90;;;;;;;;;;5100079;28;20207;-79
2023/09/04 07:29:53;;;;;;;2.50;2.30;;;;;;;;;;5112655;28;20589;-78
2023/09/04 07:32:20;;;;;;;3.60;2.87;;;;;;;;;;5099435;28;20201;-77
2023/09/04 07:34:47;;;;;;;3.17;2.20;;;;;;;;;;5092126;28;20196;-77
2023/09/04 07:37:15;;;;;;;2.50;2.37;;;;;;;;;;5092446;28;20208;-78
2023/09/04 07:39:42;;;;;;;2.27;2.17;;;;;;;;;;5092248;28;20200;-78
2023/09/04 07:42:09;;;;;;;3.13;2.30;;;;;;;;;;5092055;28;20207;-77
2023/09/04 07:44:36;;;;;;;4.67;2.53;;;;;;;;;;5091718;28;20680;-77
2023/09/04 07:47:03;;;;;;;2.40;2.20;;;;;;;;;;5106008;28;20685;-77
2023/09/04 07:49:29;;;;;;;3.17;2.53;;;;;;;;;;5104510;28;20204;-77
2023/09/04 07:51:56;;;;;;;2.40;2.27;;;;;;;;;;5093296;28;20199;-77
2023/09/04 07:54:24;;;;;;;4.27;2.17;;;;;;;;;;5104289;28;20204;-77
2023/09/04 07:56:51;;;;;;;4.67;2.97;;;;;;;;;;5105442;28;20192;-77
2023/09/04 07:59:18;;;;;;;3.20;2.60;;;;;;;;;;5100375;28;20203;-77
2023/09/04 08:01:45;;;;;;;2.90;2.63;;;;;;;;;;5098231;28;20206;-78
2023/09/04 08:04:11;;;;;;;2.93;2.73;;;;;;;;;;5103397;28;20705;-78
2023/09/04 08:06:38;;;;;;;2.23;2.00;;;;;;;;;;5091725;28;20200;-78
2023/09/04 08:09:05;;;;;;;2.73;2.53;;;;;;;;;;5091978;28;20199;-78
2023/09/04 08:11:34;;;;;;;3.20;2.70;;;;;;;;;;5091529;28;20731;-78
2023/09/04 08:14:00;;;;;;;3.00;2.80;;;;;;;;;;5101036;28;20610;-78
2023/09/04 08:16:27;;;;;;;2.60;2.40;;;;;;;;;;5098034;28;20227;-78
2023/09/04 08:18:54;;;;;;;2.90;2.70;;;;;;;;;;5111655;28;20210;-78
2023/09/04 08:21:21;;;;;;;2.80;2.47;;;;;;;;;;5097806;28;20286;-78
2023/09/04 08:23:47;;;;;;;2.93;2.73;;;;;;;;;;5111750;28;20230;-78
2023/09/04 08:26:18;;;;;;;3.33;3.13;;;;;;;;;;5094525;28;20201;-78
2023/09/04 08:28:46;;;;;;;3.03;2.83;;;;;;;;;;5102266;28;20203;-78
2023/09/04 08:31:16;;;;;;;3.37;2.87;;;;;;;;;;5107845;28;20196;-78
2023/09/04 08:33:43;;;;;;;3.00;2.80;;;;;;;;;;5091243;28;20208;-78
2023/09/04 08:36:10;;;;;;;4.43;3.27;;;;;;;;;;5090868;28;20682;-80
2023/09/04 08:38:36;;;;;;;3.33;2.80;;;;;;;;;;5091600;28;20215;-82
2023/09/04 08:41:06;;;;;;;2.60;2.40;;;;;;;;;;5104847;28;20199;-81
2023/09/04 08:43:33;;;;;;;5.30;4.57;;;;;;;;;;5091230;28;20245;-80
2023/09/04 08:46:03;;;;;;;3.50;3.20;;;;;;;;;;5110639;28;20613;-80
2023/09/04 08:48:30;;;;;;;5.90;3.87;;;;;;;;;;5098453;28;20200;-80
2023/09/04 08:50:57;;;;;;;3.00;2.80;;;;;;;;;;5104201;28;20257;-81
2023/09/04 08:53:24;;;;;;;3.53;3.23;;;;;;;;;;5091198;28;20689;-81
2023/09/04 08:55:51;;;;;;;4.87;3.53;;;;;;;;;;5096996;28;20203;-80
2023/09/04 08:58:18;;;;;;;11.80;8.70;;;;;;;;;;5097723;28;20205;-81
2023/09/04 09:00:46;;;;;;;4.50;4.10;;;;;;;;;;5090812;28;20206;-81
2023/09/04 09:03:18;;;;;;;3.20;3.00;;;;;;;;;;5104670;28;20200;-80
2023/09/04 09:05:48;;;;;;;3.60;3.20;;;;;;;;;;5098867;28;20230;-81
2023/09/04 09:08:16;;;;;;;3.20;3.00;;;;;;;;;;5095791;28;20199;-80
2023/09/04 09:10:45;;;;;;;3.23;3.03;;;;;;;;;;5090473;28;20725;-80
2023/09/04 09:13:14;;;;;;;3.73;3.43;;;;;;;;;;5104069;28;21533;-80
2023/09/04 09:15:41;;;;;;;3.67;3.37;;;;;;;;;;5090541;28;20200;-80
2023/09/04 09:18:07;;;;;;;3.67;3.37;;;;;;;;;;5093939;28;20228;-81
2023/09/04 09:20:38;;;;;;;3.73;3.43;;;;;;;;;;5101351;28;20201;-81
2023/09/04 09:23:06;;;;;;;3.30;3.10;;;;;;;;;;5104129;28;20686;-81
2023/09/04 09:25:33;;;;;;;4.20;3.80;;;;;;;;;;5090329;28;20299;-81
2023/09/04 09:28:01;;;;;;;4.87;3.93;;;;;;;;;;5090373;28;20696;-80
2023/09/04 09:30:34;;;;;;;3.60;3.30;;;;;;;;;;5090941;28;20207;-81
2023/09/04 09:33:03;;;;;;;6.90;3.60;;;;;;;;;;5095913;28;20202;-80
2023/09/04 09:35:31;;;;;;;3.40;3.10;;;;;;;;;;5098205;28;20218;-80
2023/09/04 09:38:01;;;;;;;3.03;2.83;;;;;;;;;;5110322;28;20213;-80
2023/09/04 09:40:28;;;;;;;4.40;3.83;;;;;;;;;;5110642;28;20215;-79
2023/09/04 09:42:55;;;;;;;3.10;2.90;;;;;;;;;;5097775;28;20634;-79
2023/09/04 09:45:22;;;;;;;3.83;3.53;;;;;;;;;;5096551;28;20302;-79
2023/09/04 09:47:51;;;;;;;3.50;3.20;;;;;;;;;;5090513;28;20203;-78
2023/09/04 09:50:19;;;;;;;3.40;3.20;;;;;;;;;;5091789;28;20235;-79
2023/09/04 09:52:57;;;;;;;3.17;2.93;;;;;;;;;;5102445;28;20669;-78
2023/09/04 09:55:26;;;;;;;3.00;2.80;;;;;;;;;;5107159;28;20210;-78
2023/09/04 09:57:53;;;;;;;3.07;2.87;;;;;;;;;;5100099;28;20215;-78
2023/09/04 10:00:20;;;;;;;3.10;2.90;;;;;;;;;;5090371;28;20210;-77
2023/09/04 10:02:47;;;;;;;3.50;3.30;;;;;;;;;;5100878;28;20203;-78
2023/09/04 10:05:16;;;;;;;2.77;2.57;;;;;;;;;;5092675;28;20728;-78
2023/09/04 10:07:45;;;;;;;3.20;2.90;;;;;;;;;;5090117;28;20226;-78
2023/09/04 10:10:12;;;;;;;3.20;2.90;;;;;;;;;;5094185;28;20228;-78
2023/09/04 10:12:44;;;;;;;3.20;3.00;;;;;;;;;;5094382;28;20212;-78
2023/09/04 10:15:11;;;;;;;2.93;2.73;;;;;;;;;;5099899;28;20674;-78
2023/09/04 10:17:42;;;;;;;3.03;2.77;;;;;;;;;;5114612;28;20204;-78
2023/09/04 10:20:11;;;;;;;4.67;2.93;;;;;;;;;;5107589;28;20204;-78
2023/09/04 10:22:41;;;;;;;2.87;2.53;;;;;;;;;;5107265;28;20299;-78
2023/09/04 10:25:12;;;;;;;2.70;2.50;;;;;;;;;;5093734;28;20293;-78
2023/09/04 10:27:45;;;;;;;3.00;2.80;;;;;;;;;;5109065;28;20210;-78
2023/09/04 10:30:18;;;;;;;2.70;2.47;;;;;;;;;;5114091;28;20227;-78
2023/09/04 10:32:45;;;;;;;3.00;2.80;;;;;;;;;;5110883;28;20204;-78
2023/09/04 10:35:12;;;;;;;3.23;3.00;;;;;;;;;;5093445;28;20287;-77
2023/09/04 10:37:40;;;;;;;3.07;2.87;;;;;;;;;;5106782;28;20216;-77
2023/09/04 10:40:10;;;;;;;2.53;2.33;;;;;;;;;;5094006;28;20239;-78
2023/09/04 10:42:41;;;;;;;3.03;2.73;;;;;;;;;;5111325;28;20606;-77
2023/09/04 10:45:18;;;;;;;3.53;2.80;;;;;;;;;;5102125;28;20235;-77
2023/09/04 10:47:46;;;;;;;3.10;2.90;;;;;;;;;;5106850;28;20199;-78
2023/09/04 10:50:30;;;;;;;2.63;2.43;;;;;;;;;;5106655;28;20231;-78
2023/09/04 10:52:58;;;;;;;2.30;2.10;;;;;;;;;;5093103;28;20678;-78
2023/09/04 10:55:25;;;;;;;3.07;2.77;;;;;;;;;;5109682;28;20202;-78
2023/09/04 10:57:58;;;;;;;2.20;2.10;;;;;;;;;;5102904;28;20204;-78
2023/09/04 11:00:34;;;;;;;2.20;2.00;;;;;;;;;;5106762;28;20203;-78
2023/09/04 11:03:15;;;;;;;2.80;2.60;;;;;;;;;;5105818;28;20234;-78
2023/09/04 11:06:12;;;;;;;2.13;2.03;;;;;;;;;;5092969;28;20231;-78
2023/09/04 11:08:50;;;;;;;4.33;2.20;;;;;;;;;;5112129;28;20203;-77
2023/09/04 11:11:21;;;;;;;2.00;1.90;;;;;;;;;;5099581;28;20247;-78
2023/09/04 11:13:56;;;;;;;2.40;2.30;;;;;;;;;;5105374;28;20196;-78
2023/09/04 11:16:24;;;;;;;2.10;2.00;;;;;;;;;;5092783;28;20204;-78
2023/09/04 11:19:01;;;;;;;2.63;2.43;;;;;;;;;;5102001;28;20211;-78
2023/09/04 11:21:32;;;;;;;1.90;1.80;;;;;;;;;;5095337;28;20203;-78
2023/09/04 11:23:59;;;;;;;2.27;2.07;;;;;;;;;;5092656;28;20261;-78
2023/09/04 11:26:27;;;;;;;2.33;2.13;;;;;;;;;;5092711;28;20611;-79
2023/09/04 11:28:54;;;;;;;2.40;2.27;;;;;;;;;;5092885;28;20200;-78
2023/09/04 11:31:21;;;;;;;2.97;2.07;;;;;;;;;;5105899;28;20204;-78
2023/09/04 11:33:52;;;;;;;3.23;1.97;;;;;;;;;;5092681;28;20192;-77
2023/09/04 11:36:19;;;;;;;2.80;2.10;;;;;;;;;;5111600;28;20196;-78
2023/09/04 11:38:46;;;;;;;2.40;2.20;;;;;;;;;;5100150;28;20201;-77
2023/09/04 11:41:16;;;;;;;2.90;1.83;;;;;;;;;;5098365;28;20681;-77
2023/09/04 11:43:43;;;;;;;2.03;1.80;;;;;;;;;;5099411;28;20587;-77
2023/09/04 11:46:10;;;;;;;2.10;2.00;;;;;;;;;;5111905;28;20247;-78
2023/09/04 11:48:37;;;;;;;1.90;1.80;;;;;;;;;;5099201;28;20262;-77
2023/09/04 11:51:07;;;;;;;2.10;2.00;;;;;;;;;;5092002;28;20207;-78
2023/09/04 11:53:34;;;;;;;1.87;1.77;;;;;;;;;;5092303;28;20204;-78
2023/09/04 11:56:00;;;;;;;1.83;1.73;;;;;;;;;;5092082;28;20197;-78
2023/09/04 11:58:28;;;;;;;5.40;1.40;;;;;;;;;;5106862;28;20196;-78
2023/09/04 12:00:54;;;;;;;1.60;1.50;;;;;;;;;;5104108;28;20253;-78
2023/09/04 12:03:21;;;;;;;1.47;1.37;;;;;;;;;;5105532;28;20196;-78
2023/09/04 12:05:51;;;;;;;1.60;1.50;;;;;;;;;;5092110;28;20223;-77
2023/09/04 12:08:19;;;;;;;2.07;1.80;;;;;;;;;;5092121;28;20206;-77
2023/09/04 12:10:46;;;;;;;1.93;1.83;;;;;;;;;;5100683;28;20223;-78
2023/09/04 12:13:14;;;;;;;1.60;1.50;;;;;;;;;;5098661;28;20200;-78
2023/09/04 12:15:41;;;;;;;1.47;1.37;;;;;;;;;;5102504;28;20207;-78
2023/09/04 12:18:11;;;;;;;1.80;1.47;;;;;;;;;;5091585;28;20208;-77
2023/09/04 12:20:41;;;;;;;2.47;1.67;;;;;;;;;;5091509;28;20682;-78
2023/09/04 12:23:08;;;;;;;1.83;1.73;;;;;;;;;;5109109;28;20281;-77
2023/09/04 12:25:39;;;;;;;1.70;1.60;;;;;;;;;;5100499;28;20235;-78
2023/09/04 12:28:06;;;;;;;1.70;1.60;;;;;;;;;;5096538;28;20206;-77
2023/09/04 12:30:35;;;;;;;2.00;1.77;;;;;;;;;;5099381;28;20204;-78
2023/09/04 12:33:01;;;;;;;2.50;2.07;;;;;;;;;;5096876;28;20230;-77
2023/09/04 12:35:33;;;;;;;1.63;1.53;;;;;;;;;;5099435;28;20200;-77
2023/09/04 12:38:00;;;;;;;1.70;1.60;;;;;;;;;;5110577;28;20248;-78
2023/09/04 12:40:27;;;;;;;1.80;1.70;;;;;;;;;;5111857;28;20195;-78
2023/09/04 12:42:55;;;;;;;1.63;1.30;;;;;;;;;;5091469;28;20567;-78
2023/09/04 12:45:22;;;;;;;1.57;1.47;;;;;;;;;;5090903;28;20219;-78
2023/09/04 12:47:48;;;;;;;1.60;1.50;;;;;;;;;;5098562;28;20210;-77
2023/09/04 12:50:16;;;;;;;1.20;1.20;;;;;;;;;;5097939;28;20273;-78
2023/09/04 12:52:47;;;;;;;2.23;2.00;;;;;;;;;;5103866;28;20208;-78
2023/09/04 12:55:14;;;;;;;1.67;1.57;;;;;;;;;;5092919;28;20211;-77
2023/09/04 12:57:41;;;;;;;3.83;1.60;;;;;;;;;;5111324;28;20230;-78
2023/09/04 13:00:11;;;;;;;1.70;1.60;;;;;;;;;;5108949;28;20226;-77
2023/09/04 13:02:38;;;;;;;1.77;1.60;;;;;;;;;;5099931;28;20199;-78
2023/09/04 13:05:05;;;;;;;1.53;1.43;;;;;;;;;;5111379;28;20206;-77
2023/09/04 13:07:34;;;;;;;1.43;1.33;;;;;;;;;;5100774;28;20201;-78
2023/09/04 13:10:00;;;;;;;1.60;1.50;;;;;;;;;;5104433;28;20254;-78
2023/09/04 13:12:27;;;;;;;1.57;1.47;;;;;;;;;;5090819;28;20196;-77
2023/09/04 13:14:54;;;;;;;1.60;1.50;;;;;;;;;;5107597;28;20188;-77
2023/09/04 13:17:22;;;;;;;1.60;1.50;;;;;;;;;;5100871;28;20204;-77
2023/09/04 13:19:49;;;;;;;1.60;1.50;;;;;;;;;;5108305;28;20207;-77
2023/09/04 13:22:17;;;;;;;1.50;1.40;;;;;;;;;;5110992;28;20203;-77
2023/09/04 13:24:43;;;;;;;1.60;1.50;;;;;;;;;;5093039;28;20204;-77
2023/09/04 13:27:10;;;;;;;1.77;1.67;;;;;;;;;;5090817;28;20231;-77
2023/09/04 13:29:37;;;;;;;1.40;1.30;;;;;;;;;;5095069;28;20191;-77
2023/09/04 13:32:04;;;;;;;1.20;1.20;;;;;;;;;;5099816;28;20211;-77
2023/09/04 13:34:32;;;;;;;1.40;1.30;;;;;;;;;;5104214;28;20200;-76
2023/09/04 13:36:59;;;;;;;2.17;1.30;;;;;;;;;;5101854;28;20195;-77
2023/09/04 13:39:26;;;;;;;1.50;1.40;;;;;;;;;;5092955;28;20212;-77
2023/09/04 13:41:52;;;;;;;1.20;1.20;;;;;;;;;;5090507;28;20262;-77
2023/09/04 13:44:19;;;;;;;1.43;1.33;;;;;;;;;;5098384;28;20200;-77
2023/09/04 13:46:46;;;;;;;5.73;2.60;;;;;;;;;;5103111;28;20224;-77
2023/09/04 13:49:13;;;;;;;1.90;1.80;;;;;;;;;;5099557;28;20807;-76
2023/09/04 13:51:41;;;;;;;1.90;1.80;;;;;;;;;;5115106;28;20202;-77
2023/09/04 13:54:10;;;;;;;1.63;1.53;;;;;;;;;;5108733;28;20238;-76
2023/09/04 13:56:37;;;;;;;1.93;1.83;;;;;;;;;;5107010;28;20200;-76
2023/09/04 13:59:04;;;;;;;1.87;1.77;;;;;;;;;;5095322;28;20250;-77
2023/09/04 14:01:30;;;;;;;2.30;2.13;;;;;;;;;;5094254;28;20257;-76
2023/09/04 14:03:57;;;;;;;1.77;1.67;;;;;;;;;;5113555;28;20207;-76
2023/09/04 14:06:24;;;;;;;1.67;1.57;;;;;;;;;;5101243;28;20220;-77
2023/09/04 14:08:52;;;;;;;2.13;1.60;;;;;;;;;;5113909;28;20286;-76
2023/09/04 14:11:19;;;;;;;2.27;1.90;;;;;;;;;;5101011;28;20224;-76
2023/09/04 14:13:46;;;;;;;1.80;1.70;;;;;;;;;;5093966;28;20234;-76
2023/09/04 14:16:16;;;;;;;1.33;1.33;;;;;;;;;;5107431;28;20261;-76
2023/09/04 14:18:43;;;;;;;2.13;1.70;;;;;;;;;;5093991;28;20246;-76
2023/09/04 14:21:10;;;;;;;1.80;1.70;;;;;;;;;;5093749;28;20682;-76
2023/09/04 14:23:36;;;;;;;1.70;1.60;;;;;;;;;;5101462;28;20213;-75
2023/09/04 14:26:05;;;;;;;1.83;1.73;;;;;;;;;;5112563;28;20227;-76
2023/09/04 14:28:32;;;;;;;1.83;1.70;;;;;;;;;;5102737;28;20195;-76
2023/09/04 14:30:59;;;;;;;1.90;1.80;;;;;;;;;;5098271;28;20204;-76
2023/09/04 14:33:26;;;;;;;1.90;1.80;;;;;;;;;;5102398;28;20203;-76
2023/09/04 14:35:58;;;;;;;2.93;2.70;;;;;;;;;;5098508;28;20228;-77
2023/09/04 14:38:25;;;;;;;1.63;1.50;;;;;;;;;;5093909;28;20636;-76
2023/09/04 14:40:54;;;;;;;2.27;2.07;;;;;;;;;;5110484;28;20587;-76
2023/09/04 14:43:22;;;;;;;1.80;1.70;;;;;;;;;;5103507;28;20212;-76
2023/09/04 14:45:49;;;;;;;1.90;1.80;;;;;;;;;;5106553;28;20220;-76
2023/09/04 14:48:16;;;;;;;2.00;1.90;;;;;;;;;;5104455;28;20210;-76